Time;durP1;ratioP1;P1;durP2;ratioP2;P2;SDS_P1;SDS_P2;PMS_P1;PMS_P2;Temp;Humidity;BMP_temperature;BMP_pressure;BME280_temperature;BME280_humidity;BME280_pressure;Samples;Min_cycle;Max_cycle;Signal;HPM_P1;HPM_P2
2023/04/01 00:00:04;;;;;;;;;;;;;;;5.07;85.85;92626.00;5024778;28;19913;-38
2023/04/01 00:02:29;;;;;;;;;;;;;;;5.15;85.85;92637.78;5028213;28;19925;-38
2023/04/01 00:04:55;;;;;;;;;;;;;;;5.18;85.57;92634.69;5027666;28;19927;-38
2023/04/01 00:07:22;;;;;;;;;;;;;;;5.17;84.77;92633.25;5028985;28;20478;-38
2023/04/01 00:09:47;;;;;;;;;;;;;;;5.40;83.89;92617.00;5022751;28;19913;-38
2023/04/01 00:12:13;;;;;;;;;;;;;;;5.65;83.40;92618.09;5023677;28;19917;-38
2023/04/01 00:14:39;;;;;;;;;;;;;;;5.52;83.94;92612.00;5024518;28;19914;-38
2023/04/01 00:17:05;;;;;;;;;;;;;;;5.51;84.62;92599.56;5022638;28;19921;-38
2023/04/01 00:19:31;;;;;;;;;;;;;;;5.41;85.69;92585.63;5027622;28;19924;-38
2023/04/01 00:21:57;;;;;;;;;;;;;;;5.37;86.53;92585.94;5017894;28;20600;-38
2023/04/01 00:24:22;;;;;;;;;;;;;;;5.54;86.26;92595.75;5022096;28;20013;-37
2023/04/01 00:26:47;;;;;;;;;;;;;;;5.58;85.58;92602.38;5016201;28;19996;-38
2023/04/01 00:29:13;;;;;;;;;;;;;;;5.58;85.01;92593.41;5017685;28;19940;-38
2023/04/01 00:31:38;;;;;;;;;;;;;;;5.52;84.81;92607.25;5028738;28;19959;-38
2023/04/01 00:34:03;;;;;;;;;;;;;;;5.55;85.41;92605.41;5022782;28;19920;-38
2023/04/01 00:36:29;;;;;;;;;;;;;;;5.49;84.70;92602.84;5022708;28;19987;-38
2023/04/01 00:38:55;;;;;;;;;;;;;;;5.60;84.73;92596.34;5034439;28;19917;-38
2023/04/01 00:41:20;;;;;;;;;;;;;;;5.71;85.04;92602.28;5027258;28;19971;-38
2023/04/01 00:43:47;;;;;;;;;;;;;;;5.62;85.35;92600.00;5029789;28;19917;-38
2023/04/01 00:46:12;;;;;;;;;;;;;;;5.64;85.26;92602.22;5033129;28;19923;-38
2023/04/01 00:49:04;;;;;;;;;;;;;;;5.60;86.30;92591.59;5028028;28;19917;-38
2023/04/01 00:51:29;;;;;;;;;;;;;;;5.60;86.31;92596.34;5027165;28;19921;-38
2023/04/01 00:53:55;;;;;;;;;;;;;;;5.62;85.97;92597.28;5029173;28;19967;-38
2023/04/01 00:56:30;;;;;;;;;;;;;;;5.85;84.13;92584.47;5031796;28;19917;-38
2023/04/01 00:59:00;;;;;;;;;;;;;;;5.86;84.50;92585.97;5046291;28;20376;-38
2023/04/01 01:01:26;;;;;;;;;;;;;;;5.79;85.96;92592.09;5048537;28;19935;-38
2023/04/01 01:03:51;;;;;;;;;;;;;;;5.77;85.58;92585.69;5030248;28;20004;-38
2023/04/01 01:06:25;;;;;;;;;;;;;;;5.66;85.17;92564.81;5016551;28;19957;-38
2023/04/01 01:09:03;;;;;;;;;;;;;;;5.76;84.71;92576.72;5055149;28;19971;-38
2023/04/01 01:11:38;;;;;;;;;;;;;;;5.71;85.08;92574.16;5028686;28;19916;-38
2023/04/01 01:14:06;;;;;;;;;;;;;;;5.51;86.86;92566.69;5023710;28;19917;-38
2023/04/01 01:16:33;;;;;;;;;;;;;;;5.46;86.55;92560.09;5026471;28;19925;-38
2023/04/01 01:19:07;;;;;;;;;;;;;;;5.50;87.50;92554.31;5062618;28;19928;-38
2023/04/01 01:21:59;;;;;;;;;;;;;;;5.54;87.43;92549.22;5021968;28;20425;-38
2023/04/01 01:24:25;;;;;;;;;;;;;;;5.62;87.24;92558.94;5024363;28;20569;-38
2023/04/01 01:26:50;;;;;;;;;;;;;;;5.72;86.39;92550.94;5022939;28;19920;-38
2023/04/01 01:29:34;;;;;;;;;;;;;;;5.72;85.97;92548.94;5022640;28;19922;-38
2023/04/01 01:32:09;;;;;;;;;;;;;;;5.75;86.11;92542.41;5029725;28;19917;-38
2023/04/01 01:34:40;;;;;;;;;;;;;;;5.72;86.44;92546.22;5026081;28;20274;-38
2023/04/01 01:37:09;;;;;;;;;;;;;;;5.57;87.57;92540.66;5027873;28;19917;-38
2023/04/01 01:39:35;;;;;;;;;;;;;;;5.52;87.33;92538.81;5060385;28;19921;-37
2023/04/01 01:42:01;;;;;;;;;;;;;;;5.52;87.45;92533.34;5042121;28;19924;-38
2023/04/01 01:44:26;;;;;;;;;;;;;;;5.56;87.79;92536.47;5027783;28;19925;-38
2023/04/01 01:46:52;;;;;;;;;;;;;;;5.55;88.09;92536.97;5025885;28;19917;-38
2023/04/01 01:49:17;;;;;;;;;;;;;;;5.77;88.29;92520.69;5024550;28;19920;-38
2023/04/01 01:51:43;;;;;;;;;;;;;;;5.79;87.48;92520.13;5026107;28;19921;-38
2023/04/01 01:54:11;;;;;;;;;;;;;;;5.76;87.89;92519.22;5021570;28;20349;-38
2023/04/01 01:56:37;;;;;;;;;;;;;;;5.78;87.62;92524.88;5026139;28;20290;-38
2023/04/01 01:59:06;;;;;;;;;;;;;;;5.85;86.54;92526.22;5046631;28;19920;-38
2023/04/01 02:01:32;;;;;;;;;;;;;;;5.85;85.89;92524.22;5057643;28;19925;-38
2023/04/01 02:03:58;;;;;;;;;;;;;;;5.77;86.70;92523.44;5035137;28;19917;-38
2023/04/01 02:06:24;;;;;;;;;;;;;;;5.62;87.68;92508.91;5022568;28;20428;-38
2023/04/01 02:08:51;;;;;;;;;;;;;;;5.63;87.37;92499.44;5018221;28;20460;-38
2023/04/01 02:11:19;;;;;;;;;;;;;;;5.65;88.04;92503.06;5057058;28;19917;-37
2023/04/01 02:13:50;;;;;;;;;;;;;;;5.64;87.14;92500.88;5027659;28;20670;-38
2023/04/01 02:16:17;;;;;;;;;;;;;;;5.49;88.29;92498.81;5053324;28;19921;-38
2023/04/01 02:18:42;;;;;;;;;;;;;;;5.55;88.90;92490.44;5047653;28;19921;-38
2023/04/01 02:21:08;;;;;;;;;;;;;;;5.39;88.19;92484.88;5023447;28;20529;-37
2023/04/01 02:23:33;;;;;;;;;;;;;;;5.35;88.73;92487.22;5021519;28;19914;-38
2023/04/01 02:25:59;;;;;;;;;;;;;;;5.43;89.18;92505.69;5054731;28;19924;-38
2023/04/01 02:28:24;;;;;;;;;;;;;;;5.38;88.47;92490.88;5049381;28;19975;-37
2023/04/01 02:30:50;;;;;;;;;;;;;;;5.59;87.66;92491.56;5061237;28;20427;-38
2023/04/01 02:33:15;;;;;;;;;;;;;;;5.70;86.37;92479.56;5030395;28;19964;-37
2023/04/01 02:35:40;;;;;;;;;;;;;;;5.58;86.89;92479.16;5038421;28;19913;-37
2023/04/01 02:38:05;;;;;;;;;;;;;;;5.53;87.79;92469.06;5022498;28;19963;-38
2023/04/01 02:40:40;;;;;;;;;;;;;;;5.34;89.01;92461.13;5065039;28;19921;-38
2023/04/01 02:43:05;;;;;;;;;;;;;;;5.33;90.18;92473.34;5028618;28;20392;-38
2023/04/01 02:45:31;;;;;;;;;;;;;;;5.31;90.27;92473.16;5034813;28;19968;-38
2023/04/01 02:47:56;;;;;;;;;;;;;;;5.36;90.21;92475.03;5028889;28;19917;-38
2023/04/01 02:50:21;;;;;;;;;;;;;;;5.21;90.30;92465.97;5026475;28;19964;-38
2023/04/01 02:52:46;;;;;;;;;;;;;;;5.08;90.86;92463.34;5025704;28;19932;-38
2023/04/01 02:55:12;;;;;;;;;;;;;;;5.10;91.49;92469.00;5029569;28;19924;-38
2023/04/01 02:57:37;;;;;;;;;;;;;;;5.18;91.28;92459.56;5031080;28;20004;-38
2023/04/01 03:00:02;;;;;;;;;;;;;;;5.16;90.50;92467.59;5026743;28;19913;-38
2023/04/01 03:02:28;;;;;;;;;;;;;;;5.19;90.90;92463.03;5024727;28;19924;-38
2023/04/01 03:04:53;;;;;;;;;;;;;;;5.53;89.42;92452.66;5024592;28;19948;-38
2023/04/01 03:07:18;;;;;;;;;;;;;;;5.46;88.95;92460.84;5031347;28;19925;-38
2023/04/01 03:09:44;;;;;;;;;;;;;;;5.43;90.63;92467.38;5027876;28;19944;-38
2023/04/01 03:12:09;;;;;;;;;;;;;;;5.47;90.42;92473.97;5020806;28;19939;-38
2023/04/01 03:14:34;;;;;;;;;;;;;;;5.44;89.99;92482.50;5027736;28;19985;-38
2023/04/01 03:17:00;;;;;;;;;;;;;;;5.86;87.29;92479.13;5033715;28;19963;-38
2023/04/01 03:19:25;;;;;;;;;;;;;;;5.71;86.75;92473.56;5031678;28;19929;-38
2023/04/01 03:21:50;;;;;;;;;;;;;;;5.61;87.67;92480.78;5030527;28;20454;-38
2023/04/01 03:24:16;;;;;;;;;;;;;;;5.48;89.82;92471.97;5027093;28;19925;-37
2023/04/01 03:26:41;;;;;;;;;;;;;;;5.55;89.15;92480.22;5024327;28;19962;-37
2023/04/01 03:29:06;;;;;;;;;;;;;;;5.38;90.16;92482.69;5021575;28;20366;-38
2023/04/01 03:31:31;;;;;;;;;;;;;;;5.32;91.16;92468.41;5026035;28;19936;-37
2023/04/01 03:33:57;;;;;;;;;;;;;;;5.29;91.47;92470.22;5029631;28;19943;-38
2023/04/01 03:36:22;;;;;;;;;;;;;;;5.31;91.93;92473.16;5024048;28;20024;-37
2023/04/01 03:38:47;;;;;;;;;;;;;;;5.48;91.93;92469.25;5032226;28;20420;-37
2023/04/01 03:41:16;;;;;;;;;;;;;;;5.61;91.48;92469.13;5028871;28;19935;-37
2023/04/01 03:43:42;;;;;;;;;;;;;;;5.61;91.02;92474.59;5029627;28;19971;-38
2023/04/01 03:46:07;;;;;;;;;;;;;;;5.68;90.71;92473.88;5026897;28;20425;-37
2023/04/01 03:48:32;;;;;;;;;;;;;;;5.81;90.29;92476.50;5029666;28;19930;-37
2023/04/01 03:50:58;;;;;;;;;;;;;;;5.87;89.06;92477.84;5028109;28;19934;-37
2023/04/01 03:53:23;;;;;;;;;;;;;;;5.67;90.43;92475.19;5030745;28;20515;-38
2023/04/01 03:55:48;;;;;;;;;;;;;;;5.74;89.93;92471.75;5034640;28;19931;-38
2023/04/01 03:58:13;;;;;;;;;;;;;;;5.65;89.82;92466.78;5031107;28;20370;-38
2023/04/01 04:00:39;;;;;;;;;;;;;;;5.63;89.86;92469.31;5030366;28;19956;-38
2023/04/01 04:03:05;;;;;;;;;;;;;;;5.76;91.03;92450.75;5020821;28;19994;-38
2023/04/01 04:05:31;;;;;;;;;;;;;;;5.90;89.65;92452.13;5025213;28;19963;-38
2023/04/01 04:07:56;;;;;;;;;;;;;;;5.92;89.75;92452.31;5027411;28;19925;-38
2023/04/01 04:10:23;;;;;;;;;;;;;;;6.08;89.61;92458.56;5028723;28;20571;-38
2023/04/01 04:12:49;;;;;;;;;;;;;;;6.06;89.42;92450.16;5026185;28;20444;-38
2023/04/01 04:15:14;;;;;;;;;;;;;;;6.13;87.94;92452.91;5029192;28;19930;-37
2023/04/01 04:17:40;;;;;;;;;;;;;;;6.34;85.94;92441.81;5030427;28;19931;-38
2023/04/01 04:20:05;;;;;;;;;;;;;;;6.29;86.11;92458.44;5024866;28;19931;-37
2023/04/01 04:22:31;;;;;;;;;;;;;;;6.28;86.81;92454.25;5028505;28;19929;-38
2023/04/01 04:24:56;;;;;;;;;;;;;;;6.17;87.63;92455.31;5026128;28;20451;-37
2023/04/01 04:27:21;;;;;;;;;;;;;;;6.23;87.61;92449.66;5030091;28;19987;-38
2023/04/01 04:29:46;;;;;;;;;;;;;;;6.41;87.81;92443.13;5028708;28;20396;-37
2023/04/01 04:32:12;;;;;;;;;;;;;;;6.24;88.70;92446.34;5028688;28;19930;-37
2023/04/01 04:34:37;;;;;;;;;;;;;;;6.22;89.48;92439.94;5034498;28;20029;-38
2023/04/01 04:37:02;;;;;;;;;;;;;;;6.44;88.49;92444.75;5022494;28;19987;-37
2023/04/01 04:39:28;;;;;;;;;;;;;;;6.45;87.84;92436.00;5031863;28;19932;-37
2023/04/01 04:41:53;;;;;;;;;;;;;;;6.64;86.36;92410.97;5027584;28;20420;-37
2023/04/01 04:44:18;;;;;;;;;;;;;;;6.66;85.84;92397.41;5030532;28;19973;-37
2023/04/01 04:46:43;;;;;;;;;;;;;;;6.54;86.91;92394.31;5030758;28;20397;-38
2023/04/01 04:49:09;;;;;;;;;;;;;;;6.52;88.24;92402.34;5028241;28;19971;-38
2023/04/01 04:51:35;;;;;;;;;;;;;;;6.66;87.82;92394.69;5021453;28;20394;-38
2023/04/01 04:54:01;;;;;;;;;;;;;;;6.74;86.23;92382.44;5026112;28;19939;-38
2023/04/01 04:56:26;;;;;;;;;;;;;;;6.55;87.61;92379.31;5031592;28;20405;-38
2023/04/01 04:58:51;;;;;;;;;;;;;;;6.55;88.17;92370.38;5026400;28;19937;-38
2023/04/01 05:01:17;;;;;;;;;;;;;;;6.80;86.65;92363.03;5026674;28;19962;-38
2023/04/01 05:03:43;;;;;;;;;;;;;;;6.72;87.40;92365.06;5030897;28;20029;-38
2023/04/01 05:06:09;;;;;;;;;;;;;;;6.77;88.41;92353.91;5021596;28;19950;-38
2023/04/01 05:08:34;;;;;;;;;;;;;;;6.76;89.71;92346.22;5017749;28;20460;-38
2023/04/01 05:11:00;;;;;;;;;;;;;;;6.77;89.44;92328.47;5025728;28;19982;-37
2023/04/01 05:13:25;;;;;;;;;;;;;;;6.95;89.72;92352.06;5029197;28;19936;-37
2023/04/01 05:15:50;;;;;;;;;;;;;;;7.02;89.31;92347.84;5027837;28;20424;-38
2023/04/01 05:18:16;;;;;;;;;;;;;;;7.04;88.88;92345.97;5025740;28;19938;-37
2023/04/01 05:20:52;;;;;;;;;;;;;;;7.06;86.61;92342.69;5016316;28;19937;-37
2023/04/01 05:23:17;;;;;;;;;;;;;;;7.26;85.52;92334.22;5020989;28;19959;-37
2023/04/01 05:25:42;;;;;;;;;;;;;;;7.33;85.40;92322.47;5029883;28;20508;-37
2023/04/01 05:28:08;;;;;;;;;;;;;;;7.35;84.93;92313.69;5028688;28;19973;-37
2023/04/01 05:30:33;;;;;;;;;;;;;;;7.45;86.17;92323.50;5031686;28;20032;-37
2023/04/01 05:32:58;;;;;;;;;;;;;;;7.50;86.26;92319.84;5030211;28;19949;-38
2023/04/01 05:35:24;;;;;;;;;;;;;;;7.67;85.11;92313.72;5032449;28;19932;-37
2023/04/01 05:37:49;;;;;;;;;;;;;;;7.74;83.26;92314.97;5024022;28;19932;-37
2023/04/01 05:40:15;;;;;;;;;;;;;;;7.78;83.43;92309.81;5021958;28;19940;-38
2023/04/01 05:42:40;;;;;;;;;;;;;;;7.86;82.08;92313.25;5025562;28;19941;-38
2023/04/01 05:45:06;;;;;;;;;;;;;;;8.02;80.86;92309.84;5023130;28;19957;-38
2023/04/01 05:47:31;;;;;;;;;;;;;;;8.24;77.81;92310.97;5028680;28;19933;-38
2023/04/01 05:49:56;;;;;;;;;;;;;;;8.40;76.79;92306.88;5029173;28;19927;-38
2023/04/01 05:52:21;;;;;;;;;;;;;;;8.48;76.49;92306.78;5027583;28;19932;-38
2023/04/01 05:54:48;;;;;;;;;;;;;;;8.62;75.92;92305.22;5023022;28;19932;-38
2023/04/01 05:57:14;;;;;;;;;;;;;;;8.81;73.78;92306.13;5031247;28;19961;-38
2023/04/01 05:59:39;;;;;;;;;;;;;;;9.11;72.26;92314.09;5023275;28;21795;-37
2023/04/01 06:02:05;;;;;;;;;;;;;;;9.57;71.05;92316.34;5016860;28;20669;-38
2023/04/01 06:04:34;;;;;;;;;;;;;;;10.03;67.28;92317.19;5024888;28;19965;-38
2023/04/01 06:07:00;;;;;;;;;;;;;;;10.43;65.70;92308.56;5056701;28;19943;-38
2023/04/01 06:09:30;;;;;;;;;;;;;;;10.44;66.07;92313.50;5024404;28;19933;-37
2023/04/01 06:12:07;;;;;;;;;;;;;;;10.90;65.57;92318.28;5026980;28;20012;-38
2023/04/01 06:14:51;;;;;;;;;;;;;;;11.65;64.29;92316.88;5029120;28;19999;-38
2023/04/01 06:17:19;;;;;;;;;;;;;;;12.21;58.90;92308.38;5023803;28;19930;-38
2023/04/01 06:20:11;;;;;;;;;;;;;;;13.26;57.69;92305.13;5025580;28;19936;-39
2023/04/01 06:22:39;;;;;;;;;;;;;;;13.58;54.72;92294.09;5017163;28;20007;-36
2023/04/01 06:25:11;;;;;;;;;;;;;;;13.80;54.57;92296.84;5033578;28;19968;-38
2023/04/01 06:27:36;;;;;;;;;;;;;;;13.81;53.40;92306.63;5017549;28;20033;-38
2023/04/01 06:30:01;;;;;;;;;;;;;;;14.82;52.47;92303.22;5018337;28;20669;-38
2023/04/01 06:32:26;;;;;;;;;;;;;;;15.12;50.10;92302.25;5024099;28;19980;-38
2023/04/01 06:34:55;;;;;;;;;;;;;;;15.22;50.25;92315.28;5026959;28;19976;-38
2023/04/01 06:37:20;;;;;;;;;;;;;;;16.21;46.61;92300.13;5018993;28;19930;-38
2023/04/01 06:40:04;;;;;;;;;;;;;;;15.71;47.28;92291.72;5021278;28;19930;-37
2023/04/01 06:42:38;;;;;;;;;;;;;;;14.69;48.63;92287.16;5016330;28;19936;-38
2023/04/01 06:45:03;;;;;;;;;;;;;;;14.67;49.38;92291.84;5016107;28;19955;-38
2023/04/01 06:47:29;;;;;;;;;;;;;;;14.96;48.13;92292.97;5020541;28;19944;-38
2023/04/01 06:50:20;;;;;;;;;;;;;;;14.85;49.64;92304.81;5018499;28;19945;-38
2023/04/01 06:52:54;;;;;;;;;;;;;;;14.80;47.95;92303.09;5032626;28;19935;-38
2023/04/01 06:55:27;;;;;;;;;;;;;;;14.34;49.59;92305.81;5023044;28;19946;-38
2023/04/01 06:57:54;;;;;;;;;;;;;;;14.71;48.44;92289.31;5030001;28;19937;-39
2023/04/01 07:00:28;;;;;;;;;;;;;;;14.68;48.17;92287.75;5047379;28;20819;-38
2023/04/01 07:03:00;;;;;;;;;;;;;;;14.51;50.11;92277.72;5016613;28;20348;-38
2023/04/01 07:05:25;;;;;;;;;;;;;;;14.78;48.37;92280.03;5052494;28;20133;-38
2023/04/01 07:07:53;;;;;;;;;;;;;;;14.33;50.95;92288.47;5018744;28;20056;-38
2023/04/01 07:10:37;;;;;;;;;;;;;;;14.84;49.84;92275.56;5046344;28;19935;-38
2023/04/01 07:13:04;;;;;;;;;;;;;;;14.91;48.34;92282.19;5018540;28;19950;-38
2023/04/01 07:15:36;;;;;;;;;;;;;;;14.95;49.31;92274.09;5015581;28;20010;-38
2023/04/01 07:18:03;;;;;;;;;;;;;;;14.82;48.84;92283.78;5017451;28;19999;-38
2023/04/01 07:20:32;;;;;;;;;;;;;;;14.75;49.66;92272.91;5045274;28;19956;-39
2023/04/01 07:22:58;;;;;;;;;;;;;;;14.96;47.14;92262.38;5016631;28;20496;-39
2023/04/01 07:25:27;;;;;;;;;;;;;;;14.77;48.48;92254.28;5015011;28;19959;-38
2023/04/01 07:27:53;;;;;;;;;;;;;;;14.86;47.24;92253.44;5019529;28;20056;-38
2023/04/01 07:30:20;;;;;;;;;;;;;;;15.08;48.57;92240.84;5014186;28;19941;-38
2023/04/01 07:32:56;;;;;;;;;;;;;;;14.83;47.81;92240.78;5010657;28;19945;-38
2023/04/01 07:36:00;;;;;;;;;;;;;;;14.20;49.10;92241.09;5030912;28;19934;-38
2023/04/01 07:38:34;;;;;;;;;;;;;;;14.15;48.96;92245.66;5014904;28;19995;-38
2023/04/01 07:41:03;;;;;;;;;;;;;;;14.21;48.82;92237.69;5015428;28;20535;-38
2023/04/01 07:43:37;;;;;;;;;;;;;;;14.74;49.17;92235.34;5016254;28;19933;-38
2023/04/01 07:46:02;;;;;;;;;;;;;;;15.69;46.54;92222.78;5009987;28;19947;-38
2023/04/01 07:48:37;;;;;;;;;;;;;;;16.50;45.43;92208.38;5014983;28;19930;-38
2023/04/01 07:51:38;;;;;;;;;;;;;;;17.12;42.95;92210.16;5046803;28;19972;-38
2023/04/01 07:54:08;;;;;;;;;;;;;;;17.74;42.92;92206.94;5026360;28;20480;-39
2023/04/01 07:56:42;;;;;;;;;;;;;;;17.98;40.13;92200.44;5022216;28;19972;-39
2023/04/01 07:59:11;;;;;;;;;;;;;;;17.47;41.03;92190.25;5048753;28;20506;-39
2023/04/01 08:01:42;;;;;;;;;;;;;;;17.47;40.47;92182.59;5049484;28;19933;-38
2023/04/01 08:04:11;;;;;;;;;;;;;;;18.13;39.12;92179.44;5031689;28;20422;-39
2023/04/01 08:06:58;;;;;;;;;;;;;;;17.81;37.52;92173.09;5023483;28;20001;-39
2023/04/01 08:09:36;;;;;;;;;;;;;;;16.80;40.00;92191.78;5033453;28;19972;-38
2023/04/01 08:12:09;;;;;;;;;;;;;;;17.00;39.93;92190.72;5016131;28;19939;-38
2023/04/01 08:14:37;;;;;;;;;;;;;;;16.98;39.54;92192.72;5015909;28;20054;-38
2023/04/01 08:17:09;;;;;;;;;;;;;;;16.70;41.01;92197.56;5024028;28;19926;-38
2023/04/01 08:19:48;;;;;;;;;;;;;;;15.66;42.51;92190.59;5049064;28;19938;-38
2023/04/01 08:22:20;;;;;;;;;;;;;;;15.64;43.13;92207.19;5025329;28;20433;-38
2023/04/01 08:24:46;;;;;;;;;;;;;;;15.58;42.84;92214.47;5049840;28;20163;-38
2023/04/01 08:27:14;;;;;;;;;;;;;;;15.03;45.53;92213.41;5053933;28;19934;-38
2023/04/01 08:29:58;;;;;;;;;;;;;;;14.60;46.05;92217.81;5029790;28;19933;-38
2023/04/01 08:32:36;;;;;;;;;;;;;;;14.49;46.91;92230.38;5049143;28;19933;-38
2023/04/01 08:35:07;;;;;;;;;;;;;;;14.46;48.94;92195.50;5027775;28;19978;-38
2023/04/01 08:37:33;;;;;;;;;;;;;;;14.52;47.59;92186.78;5038165;28;19939;-39
2023/04/01 08:39:58;;;;;;;;;;;;;;;14.75;48.28;92189.56;5043109;28;19934;-39
2023/04/01 08:42:47;;;;;;;;;;;;;;;15.01;47.88;92180.66;5064405;28;19936;-38
2023/04/01 08:45:42;;;;;;;;;;;;;;;15.26;47.47;92170.94;5028461;28;19983;-38
2023/04/01 08:48:25;;;;;;;;;;;;;;;15.18;47.37;92163.56;5026258;28;19955;-38
2023/04/01 08:51:09;;;;;;;;;;;;;;;15.19;46.93;92153.91;5059571;28;19987;-38
2023/04/01 08:53:47;;;;;;;;;;;;;;;14.70;45.02;92141.38;5032308;28;19938;-38
2023/04/01 08:56:13;;;;;;;;;;;;;;;15.05;44.45;92144.75;5022177;28;19931;-38
2023/04/01 08:58:44;;;;;;;;;;;;;;;14.94;44.14;92139.97;5020376;28;19987;-38
2023/04/01 09:01:16;;;;;;;;;;;;;;;14.85;43.95;92132.50;5024982;28;19964;-38
2023/04/01 09:03:44;;;;;;;;;;;;;;;15.14;43.73;92118.88;5017945;28;19933;-38
2023/04/01 09:06:28;;;;;;;;;;;;;;;15.06;43.44;92118.41;5016116;28;19947;-38
2023/04/01 09:09:03;;;;;;;;;;;;;;;15.88;42.99;92113.16;5021460;28;20658;-43
2023/04/01 09:11:28;;;;;;;;;;;;;;;16.29;40.03;92088.16;5038239;28;19990;-42
2023/04/01 09:13:53;;;;;;;;;;;;;;;15.79;41.91;92103.66;5019700;28;19932;-42
2023/04/01 09:16:37;;;;;;;;;;;;;;;17.66;37.85;92106.06;5020072;28;19972;-38
2023/04/01 09:19:29;;;;;;;;;;;;;;;17.70;37.56;92111.81;5015671;28;20580;-38
2023/04/01 09:22:00;;;;;;;;;;;;;;;17.25;37.80;92111.78;5029306;28;19972;-36
2023/04/01 09:24:38;;;;;;;;;;;;;;;17.18;37.80;92101.66;5048468;28;19941;-38
2023/04/01 09:27:12;;;;;;;;;;;;;;;16.68;38.25;92102.69;5050386;28;19938;-38
2023/04/01 09:29:50;;;;;;;;;;;;;;;16.52;39.20;92099.13;5021775;28;20326;-38
2023/04/01 09:32:33;;;;;;;;;;;;;;;16.36;39.50;92104.56;5018418;28;19943;-38
2023/04/01 09:35:04;;;;;;;;;;;;;;;16.51;40.26;92106.03;5051070;28;20346;-38
2023/04/01 09:37:36;;;;;;;;;;;;;;;16.97;40.81;92102.78;5020534;28;19943;-38
2023/04/01 09:40:01;;;;;;;;;;;;;;;16.39;39.84;92091.47;5022561;28;19937;-38
2023/04/01 09:42:39;;;;;;;;;;;;;;;16.33;39.55;92088.38;5022969;28;20646;-38
2023/04/01 09:45:09;;;;;;;;;;;;;;;16.00;39.80;92085.25;5020322;28;20000;-38
2023/04/01 09:47:53;;;;;;;;;;;;;;;15.86;40.39;92082.44;5021659;28;19936;-38
2023/04/01 09:50:25;;;;;;;;;;;;;;;15.77;40.71;92080.56;5017053;28;20025;-38
2023/04/01 09:53:05;;;;;;;;;;;;;;;15.76;40.67;92074.31;5021304;28;20322;-37
2023/04/01 09:55:34;;;;;;;;;;;;;;;15.76;42.84;92073.56;5020357;28;20438;-38
2023/04/01 09:58:11;;;;;;;;;;;;;;;16.21;40.60;92065.47;5019128;28;19944;-38
2023/04/01 10:00:56;;;;;;;;;;;;;;;15.69;41.45;92061.41;5019929;28;19961;-38
2023/04/01 10:03:39;;;;;;;;;;;;;;;15.58;41.97;92062.19;5036831;28;19921;-38
2023/04/01 10:06:17;;;;;;;;;;;;;;;15.53;43.08;92066.09;5011132;28;19958;-38
2023/04/01 10:09:01;;;;;;;;;;;;;;;15.83;42.37;92061.44;5019627;28;20029;-37
2023/04/01 10:11:41;;;;;;;;;;;;;;;16.14;41.38;92050.50;5017500;28;19934;-38
2023/04/01 10:14:10;;;;;;;;;;;;;;;16.63;41.27;92045.34;5014635;28;20054;-38
2023/04/01 10:16:42;;;;;;;;;;;;;;;16.98;39.18;92050.53;5045816;28;20441;-38
2023/04/01 10:19:20;;;;;;;;;;;;;;;17.07;38.43;92049.53;5016715;28;19930;-38
2023/04/01 10:22:04;;;;;;;;;;;;;;;16.89;38.16;92051.47;5038613;28;20347;-38
2023/04/01 10:24:52;;;;;;;;;;;;;;;16.19;39.33;92049.38;5017366;28;19937;-38
2023/04/01 10:27:36;;;;;;;;;;;;;;;15.88;39.43;92044.31;5044279;28;19935;-38
2023/04/01 10:30:04;;;;;;;;;;;;;;;15.52;41.03;92028.50;5023189;28;19934;-38
2023/04/01 10:32:30;;;;;;;;;;;;;;;15.48;40.18;92025.50;5016564;28;19917;-38
2023/04/01 10:35:10;;;;;;;;;;;;;;;15.46;40.85;92021.91;5018390;28;20192;-38
2023/04/01 10:37:41;;;;;;;;;;;;;;;15.39;40.86;92022.88;5019306;28;19925;-38
2023/04/01 10:40:07;;;;;;;;;;;;;;;15.51;41.39;92020.75;5021009;28;19921;-38
2023/04/01 10:42:32;;;;;;;;;;;;;;;15.96;40.89;92013.38;5028168;28;19924;-38
2023/04/01 10:45:16;;;;;;;;;;;;;;;16.32;40.11;92008.94;5029983;28;19920;-38
2023/04/01 10:47:51;;;;;;;;;;;;;;;15.96;41.62;92016.16;5015283;28;19965;-38
2023/04/01 10:50:19;;;;;;;;;;;;;;;16.29;40.31;92002.53;5017226;28;19917;-38
2023/04/01 10:52:44;;;;;;;;;;;;;;;16.83;39.12;92006.59;5015884;28;19918;-38
2023/04/01 10:55:19;;;;;;;;;;;;;;;16.88;38.71;92000.56;5016800;28;19919;-37
2023/04/01 10:58:03;;;;;;;;;;;;;;;16.73;39.23;91987.31;5041456;28;20322;-38
2023/04/01 11:00:43;;;;;;;;;;;;;;;16.34;39.47;91978.38;5019599;28;20008;-38
2023/04/01 11:03:15;;;;;;;;;;;;;;;16.60;39.28;91974.84;5020151;28;19928;-38
2023/04/01 11:05:59;;;;;;;;;;;;;;;16.32;39.68;91976.22;5021339;28;19957;-38
2023/04/01 11:08:30;;;;;;;;;;;;;;;15.90;40.00;91968.53;5015836;28;19933;-38
2023/04/01 11:11:17;;;;;;;;;;;;;;;16.12;40.66;91958.53;5015667;28;20404;-38
2023/04/01 11:13:56;;;;;;;;;;;;;;;16.61;39.62;91962.34;5020032;28;19940;-38
2023/04/01 11:16:30;;;;;;;;;;;;;;;17.36;38.84;91963.78;5049193;28;19930;-38
2023/04/01 11:19:04;;;;;;;;;;;;;;;17.81;37.26;91954.59;5015039;28;20024;-38
2023/04/01 11:21:45;;;;;;;;;;;;;;;17.59;37.58;91951.56;5048502;28;19999;-38
2023/04/01 11:24:10;;;;;;;;;;;;;;;18.02;38.44;91954.84;5019379;28;20326;-38
2023/04/01 11:26:50;;;;;;;;;;;;;;;17.92;35.73;91950.91;5018594;28;19942;-38
2023/04/01 11:29:25;;;;;;;;;;;;;;;17.81;36.27;91946.94;5020994;28;20019;-38
2023/04/01 11:31:54;;;;;;;;;;;;;;;17.16;37.37;91948.91;5048386;28;20417;-38
2023/04/01 11:34:52;;;;;;;;;;;;;;;17.16;37.44;91942.59;5041914;28;20004;-38
2023/04/01 11:37:40;;;;;;;;;;;;;;;16.68;38.74;91936.22;5044165;28;20673;-38
2023/04/01 11:40:19;;;;;;;;;;;;;;;16.80;37.90;91938.13;5022316;28;20027;-38
2023/04/01 11:42:47;;;;;;;;;;;;;;;16.50;40.04;91924.19;5021578;28;19934;-38
2023/04/01 11:45:13;;;;;;;;;;;;;;;16.38;40.62;91918.03;5029820;28;19959;-38
2023/04/01 11:47:38;;;;;;;;;;;;;;;16.28;40.45;91914.78;5024280;28;19961;-38
2023/04/01 11:50:22;;;;;;;;;;;;;;;16.15;41.55;91909.22;5022073;28;19976;-38
2023/04/01 11:53:06;;;;;;;;;;;;;;;15.88;44.25;91912.78;5037915;28;19937;-38
2023/04/01 11:55:34;;;;;;;;;;;;;;;15.79;43.33;91924.84;5032574;28;19991;-38
2023/04/01 11:57:59;;;;;;;;;;;;;;;15.50;45.68;91930.31;5056980;28;19934;-38
2023/04/01 12:00:25;;;;;;;;;;;;;;;15.66;44.28;91933.91;5032808;28;20461;-38
2023/04/01 12:03:26;;;;;;;;;;;;;;;15.28;46.45;91943.75;5029515;28;20338;-38
2023/04/01 12:05:55;;;;;;;;;;;;;;;15.08;46.04;91943.41;5049564;28;19962;-38
2023/04/01 12:08:31;;;;;;;;;;;;;;;14.90;47.24;91952.84;5024522;28;19933;-38
2023/04/01 12:11:17;;;;;;;;;;;;;;;14.73;47.40;91965.13;5048515;28;19932;-38
2023/04/01 12:13:45;;;;;;;;;;;;;;;14.61;48.42;91977.63;5023293;28;19935;-38
2023/04/01 12:16:40;;;;;;;;;;;;;;;14.34;50.30;91998.34;5038195;28;19966;-38
2023/04/01 12:19:25;;;;;;;;;;;;;;;14.49;49.38;92041.53;5032475;28;20017;-38
2023/04/01 12:21:52;;;;;;;;;;;;;;;14.21;54.82;92082.25;5022297;28;19941;-38
2023/04/01 12:24:27;;;;;;;;;;;;;;;13.95;61.25;92116.78;5052531;28;19968;-35
2023/04/01 12:27:10;;;;;;;;;;;;;;;13.36;64.17;92162.38;5029210;28;20035;-38
2023/04/01 12:29:54;;;;;;;;;;;;;;;12.79;66.82;92196.06;5020826;28;19930;-38
2023/04/01 12:32:23;;;;;;;;;;;;;;;12.46;71.64;92223.66;5027219;28;19917;-37
2023/04/01 12:34:52;;;;;;;;;;;;;;;11.87;77.50;92232.03;5028209;28;19921;-37
2023/04/01 12:37:21;;;;;;;;;;;;;;;11.64;80.03;92232.50;5024873;28;19917;-37
2023/04/01 12:40:07;;;;;;;;;;;;;;;11.23;85.10;92230.94;5056059;28;20010;-38
2023/04/01 12:42:51;;;;;;;;;;;;;;;11.33;83.76;92213.06;5031465;28;20346;-37
2023/04/01 12:45:24;;;;;;;;;;;;;;;11.35;83.41;92218.72;5052525;28;19945;-37
2023/04/01 12:47:55;;;;;;;;;;;;;;;11.19;83.69;92209.28;5016953;28;19932;-37
2023/04/01 12:50:39;;;;;;;;;;;;;;;11.13;88.20;92208.84;5025537;28;19932;-37
2023/04/01 12:53:39;;;;;;;;;;;;;;;11.35;85.47;92191.09;5031345;28;19942;-37
2023/04/01 12:56:06;;;;;;;;;;;;;;;11.43;85.50;92193.69;5041644;28;19942;-37
2023/04/01 12:58:35;;;;;;;;;;;;;;;11.83;82.18;92191.00;5024217;28;19979;-38
2023/04/01 13:01:00;;;;;;;;;;;;;;;12.16;81.32;92182.88;5030647;28;19960;-38
2023/04/01 13:03:25;;;;;;;;;;;;;;;12.25;82.78;92184.13;5021788;28;19962;-38
2023/04/01 13:06:09;;;;;;;;;;;;;;;12.64;79.76;92177.06;5030645;28;19951;-38
2023/04/01 13:08:36;;;;;;;;;;;;;;;13.24;79.45;92169.19;5024417;28;20622;-38